Terminal Aerodrome Forecast
Issued by NWS Melbourne, FL

Home | Current Version | Previous Version | Text Only | Print | Product List | Glossary On
Versions: 1 2 3 4 5 6 7 8 9 10 11 12 13 14 15 16 17 18
050
FTUS42 KMLB 240633 AAA
TAFVRB
TAF AMD
KVRB 240633Z 2407/2506 19004KT P6SM VCSH SCT035 BKN070
      TEMPO 2407/2409 24010KT 3SM SHRA BKN025
     FM241500 21007KT P6SM VCSH BKN035
     FM242100 18007KT P6SM VCTS SCT035CB BKN050
     FM250300 26005KT P6SM SCT050 BKN250=

USA.gov is the U.S. government's official web portal to all federal, state and local government web resources and services.